createdAt,value
2018-04-15T00:00:57.616Z,0
2018-04-15T00:01:57.643Z,0
2018-04-15T00:02:57.659Z,0
2018-04-15T00:03:57.692Z,0
2018-04-15T00:04:57.447Z,0
2018-04-15T00:05:57.733Z,0
2018-04-15T00:06:57.748Z,0
2018-04-15T00:07:57.821Z,0
2018-04-15T00:08:57.820Z,0
2018-04-15T00:09:57.567Z,0
2018-04-15T00:10:57.847Z,0
2018-04-15T00:11:57.608Z,0
2018-04-15T00:12:57.633Z,0
2018-04-15T00:13:57.903Z,0
2018-04-15T00:14:57.931Z,0
2018-04-15T00:15:57.694Z,0
2018-04-15T00:16:57.963Z,0
2018-04-15T00:17:57.983Z,0
2018-04-15T00:18:57.754Z,0
2018-04-15T00:19:57.776Z,0
2018-04-15T00:20:58.042Z,0
2018-04-15T00:21:58.067Z,0
2018-04-15T00:22:57.889Z,0
2018-04-15T00:23:58.119Z,0
2018-04-15T00:24:57.884Z,0
2018-04-15T00:25:58.158Z,0
2018-04-15T00:26:58.205Z,0
2018-04-15T00:27:58.214Z,0
2018-04-15T00:28:57.991Z,0
2018-04-15T00:29:58.262Z,0
2018-04-15T00:30:58.494Z,0
2018-04-15T00:31:58.056Z,0
2018-04-15T00:32:58.325Z,0
2018-04-15T00:33:58.350Z,0
2018-04-15T00:34:58.380Z,0
2018-04-15T00:35:58.400Z,0
2018-04-15T00:36:58.417Z,0
2018-04-15T00:37:58.235Z,0
2018-04-15T00:38:58.516Z,0
2018-04-15T00:39:58.227Z,0
2018-04-15T00:40:58.510Z,0
2018-04-15T00:41:58.526Z,0
2018-04-15T00:42:58.296Z,0
2018-04-15T00:43:58.313Z,0
2018-04-15T00:44:58.592Z,0
2018-04-15T00:45:58.601Z,0
2018-04-15T00:46:58.634Z,0
2018-04-15T00:47:58.658Z,0
2018-04-15T00:48:58.676Z,0
2018-04-15T00:49:58.502Z,0
2018-04-15T00:50:58.723Z,0
2018-04-15T00:51:58.747Z,0
2018-04-15T00:52:58.817Z,0
2018-04-15T00:53:58.532Z,0
2018-04-15T00:54:58.820Z,0
2018-04-15T00:55:58.549Z,0
2018-04-15T00:56:58.821Z,0
2018-04-15T00:57:58.836Z,0
2018-04-15T00:58:58.872Z,0
2018-04-15T00:59:58.883Z,0
2018-04-15T01:00:58.660Z,0
2018-04-15T01:01:58.681Z,0
2018-04-15T01:02:58.991Z,0
2018-04-15T01:03:59.003Z,0
2018-04-15T01:04:59.023Z,0
2018-04-15T01:05:58.538Z,0
2018-04-15T01:06:58.537Z,0
2018-04-15T01:07:59.106Z,0
2018-04-15T01:08:59.115Z,0
2018-04-15T01:09:59.134Z,0
2018-04-15T01:10:58.904Z,0
2018-04-15T01:11:59.181Z,0
2018-04-15T01:12:58.946Z,0
2018-04-15T01:13:59.228Z,0
2018-04-15T01:14:59.245Z,0
2018-04-15T01:15:59.016Z,0
2018-04-15T01:16:59.024Z,0
2018-04-15T01:17:58.808Z,0
2018-04-15T01:18:59.074Z,0
2018-04-15T01:19:58.840Z,0
2018-04-15T01:20:59.115Z,0
2018-04-15T01:21:59.398Z,0
2018-04-15T01:22:59.476Z,0
2018-04-15T01:23:59.439Z,0
2018-04-15T01:24:59.473Z,0
2018-04-15T01:25:59.227Z,0
2018-04-15T01:26:59.515Z,0
2018-04-15T01:27:59.534Z,0
2018-04-15T01:28:59.163Z,0
2018-04-15T01:29:59.083Z,0
2018-04-15T01:30:59.340Z,0
2018-04-15T01:31:59.105Z,0
2018-04-15T01:32:59.127Z,0
2018-04-15T01:33:59.413Z,0
2018-04-15T01:34:59.429Z,0
2018-04-15T01:35:59.193Z,0
2018-04-15T01:36:59.463Z,0
2018-04-15T01:37:59.797Z,0
2018-04-15T01:38:59.499Z,0
2018-04-15T01:39:59.516Z,0
2018-04-15T01:40:59.811Z,0
2018-04-15T01:41:59.815Z,0
2018-04-15T01:42:59.581Z,0
2018-04-15T01:43:59.608Z,0
2018-04-15T01:44:59.888Z,0
2018-04-15T01:45:59.642Z,0
2018-04-15T01:46:59.667Z,0
2018-04-15T01:47:59.944Z,0
2018-04-15T01:49:00.001Z,0
2018-04-15T01:49:59.743Z,0
2018-04-15T01:50:59.510Z,0
2018-04-15T01:52:00.038Z,0
2018-04-15T01:53:00.114Z,0
2018-04-15T01:54:00.092Z,0
2018-04-15T01:54:59.597Z,0
2018-04-15T01:55:59.618Z,0
2018-04-15T01:56:59.896Z,0
2018-04-15T01:57:59.917Z,0
2018-04-15T01:59:00.204Z,0
2018-04-15T01:59:59.952Z,0
2018-04-15T02:01:00.232Z,0
2018-04-15T02:02:00.011Z,0
2018-04-15T02:03:00.281Z,0
2018-04-15T02:04:00.295Z,0
2018-04-15T02:05:00.069Z,0
2018-04-15T02:06:00.088Z,0
2018-04-15T02:07:00.359Z,0
2018-04-15T02:08:00.528Z,0
2018-04-15T02:09:00.405Z,0
2018-04-15T02:10:00.409Z,0
2018-04-15T02:11:00.420Z,0
2018-04-15T02:12:00.449Z,0
2018-04-15T02:13:00.221Z,0
2018-04-15T02:14:00.495Z,0
2018-04-15T02:15:00.513Z,0
2018-04-15T02:16:00.284Z,0
2018-04-15T02:17:00.302Z,0
2018-04-15T02:18:00.341Z,0
2018-04-15T02:19:00.375Z,0
2018-04-15T02:20:00.632Z,0
2018-04-15T02:21:00.655Z,0
2018-04-15T02:22:00.677Z,0
2018-04-15T02:23:00.839Z,0
2018-04-15T02:24:00.463Z,0
2018-04-15T02:25:00.746Z,0
2018-04-15T02:26:00.512Z,0
2018-04-15T02:27:00.527Z,0
2018-04-15T02:28:00.572Z,0
2018-04-15T02:29:00.822Z,0
2018-04-15T02:30:00.842Z,0
2018-04-15T02:31:00.879Z,0
2018-04-15T02:32:00.383Z,0
2018-04-15T02:33:00.938Z,0
2018-04-15T02:34:00.929Z,0
2018-04-15T02:35:00.698Z,0
2018-04-15T02:36:00.718Z,0
2018-04-15T02:37:00.991Z,0
2018-04-15T02:38:01.082Z,0
2018-04-15T02:39:01.038Z,0
2018-04-15T02:40:00.801Z,0
2018-04-15T02:41:01.080Z,0
2018-04-15T02:42:00.855Z,0
2018-04-15T02:43:01.167Z,0
2018-04-15T02:44:01.146Z,0
2018-04-15T02:45:01.160Z,0
2018-04-15T02:46:01.183Z,0
2018-04-15T02:47:00.946Z,0
2018-04-15T02:48:01.019Z,0
2018-04-15T02:49:00.990Z,0
2018-04-15T02:50:01.026Z,0
2018-04-15T02:51:00.781Z,0
2018-04-15T02:52:01.306Z,0
2018-04-15T02:53:01.322Z,0
2018-04-15T02:54:01.345Z,0
2018-04-15T02:55:01.369Z,0
2018-04-15T02:56:01.395Z,0
2018-04-15T02:57:01.411Z,0
2018-04-15T02:58:01.430Z,0
2018-04-15T02:59:01.446Z,0
2018-04-15T03:00:01.486Z,0
2018-04-15T03:01:01.498Z,0
2018-04-15T03:02:01.262Z,0
2018-04-15T03:03:01.588Z,0
2018-04-15T03:04:01.552Z,0
2018-04-15T03:05:01.570Z,0
2018-04-15T03:06:01.334Z,0
2018-04-15T03:07:01.359Z,0
2018-04-15T03:08:01.635Z,0
2018-04-15T03:09:01.419Z,0
2018-04-15T03:10:01.672Z,0
2018-04-15T03:11:01.700Z,0
2018-04-15T03:12:01.723Z,0
2018-04-15T03:13:01.737Z,0
2018-04-15T03:14:01.758Z,0
2018-04-15T03:15:01.526Z,0
2018-04-15T03:16:01.297Z,0
2018-04-15T03:17:01.819Z,0
2018-04-15T03:18:01.378Z,0
2018-04-15T03:19:01.854Z,0
2018-04-15T03:20:01.898Z,0
2018-04-15T03:21:01.656Z,0
2018-04-15T03:22:01.669Z,0
2018-04-15T03:23:01.699Z,0
2018-04-15T03:24:01.695Z,0
2018-04-15T03:25:01.718Z,0
2018-04-15T03:26:01.996Z,0
2018-04-15T03:27:02.023Z,0
2018-04-15T03:28:02.043Z,0
2018-04-15T03:29:01.804Z,0
2018-04-15T03:30:01.620Z,0
2018-04-15T03:31:01.612Z,0
2018-04-15T03:32:01.884Z,0
2018-04-15T03:33:02.202Z,0
2018-04-15T03:34:01.912Z,0
2018-04-15T03:35:01.938Z,0
2018-04-15T03:36:02.244Z,0
2018-04-15T03:37:01.970Z,0
2018-04-15T03:38:02.252Z,0
2018-04-15T03:39:02.269Z,0
2018-04-15T03:40:02.042Z,0
2018-04-15T03:41:02.063Z,0
2018-04-15T03:42:02.336Z,0
2018-04-15T03:43:02.099Z,0
2018-04-15T03:44:02.460Z,0
2018-04-15T03:45:02.386Z,0
2018-04-15T03:46:01.900Z,0
2018-04-15T03:47:02.428Z,4
2018-04-15T03:48:02.449Z,4
2018-04-15T03:49:02.217Z,4
2018-04-15T03:50:02.485Z,4
2018-04-15T03:51:02.511Z,4
2018-04-15T03:52:02.582Z,4
2018-04-15T03:53:02.042Z,4
2018-04-15T03:54:02.574Z,4
2018-04-15T03:55:02.603Z,4
2018-04-15T03:56:02.359Z,4
2018-04-15T03:57:02.633Z,4
2018-04-15T03:58:02.435Z,4
2018-04-15T03:59:02.676Z,0
2018-04-15T04:00:02.700Z,4
2018-04-15T04:01:02.721Z,4
2018-04-15T04:02:02.488Z,4
2018-04-15T04:03:02.761Z,8
2018-04-15T04:04:02.762Z,4
2018-04-15T04:05:02.786Z,8
2018-04-15T04:06:02.543Z,8
2018-04-15T04:07:02.885Z,8
2018-04-15T04:08:02.332Z,12
2018-04-15T04:09:02.857Z,12
2018-04-15T04:10:02.676Z,16
2018-04-15T04:11:02.906Z,16
2018-04-15T04:12:02.664Z,16
2018-04-15T04:13:02.946Z,24
2018-04-15T04:14:02.957Z,24
2018-04-15T04:15:02.979Z,28
2018-04-15T04:16:03.000Z,28
2018-04-15T04:17:03.018Z,32
2018-04-15T04:18:03.045Z,32
2018-04-15T04:19:03.059Z,36
2018-04-15T04:20:02.829Z,44
2018-04-15T04:21:02.597Z,48
2018-04-15T04:22:02.920Z,48
2018-04-15T04:23:02.884Z,56
2018-04-15T04:24:03.218Z,60
2018-04-15T04:25:02.675Z,68
2018-04-15T04:26:02.968Z,68
2018-04-15T04:27:02.982Z,76
2018-04-15T04:28:03.009Z,80
2018-04-15T04:29:03.026Z,84
2018-04-15T04:30:03.295Z,92
2018-04-15T04:31:02.809Z,96
2018-04-15T04:32:03.353Z,108
2018-04-15T04:33:03.103Z,116
2018-04-15T04:34:03.121Z,124
2018-04-15T04:35:03.392Z,136
2018-04-15T04:36:03.167Z,148
2018-04-15T04:37:02.725Z,160
2018-04-15T04:38:02.943Z,172
2018-04-15T04:39:03.471Z,188
2018-04-15T04:40:03.507Z,204
2018-04-15T04:41:03.516Z,220
2018-04-15T04:42:03.020Z,236
2018-04-15T04:43:03.553Z,252
2018-04-15T04:44:03.567Z,268
2018-04-15T04:45:03.453Z,288
2018-04-15T04:46:03.373Z,308
2018-04-15T04:47:03.628Z,324
2018-04-15T04:48:03.390Z,344
2018-04-15T04:49:03.666Z,364
2018-04-15T04:50:03.173Z,384
2018-04-15T04:51:02.943Z,408
2018-04-15T04:52:03.872Z,428
2018-04-15T04:53:03.743Z,448
2018-04-15T04:54:03.763Z,468
2018-04-15T04:55:03.529Z,488
2018-04-15T04:56:03.803Z,508
2018-04-15T04:57:03.543Z,524
2018-04-15T04:58:03.816Z,548
2018-04-15T04:59:03.854Z,568
2018-04-15T05:00:03.853Z,592
2018-04-15T05:01:03.626Z,612
2018-04-15T05:02:03.667Z,636
2018-04-15T05:03:03.687Z,664
2018-04-15T05:04:03.445Z,692
2018-04-15T05:05:03.472Z,724
2018-04-15T05:06:04.000Z,752
2018-04-15T05:07:03.552Z,784
2018-04-15T05:08:03.521Z,808
2018-04-15T05:09:03.794Z,844
2018-04-15T05:10:04.140Z,876
2018-04-15T05:11:04.101Z,904
2018-04-15T05:12:03.881Z,936
2018-04-15T05:13:04.140Z,972
2018-04-15T05:14:03.897Z,1004
2018-04-15T05:15:03.659Z,1036
2018-04-15T05:16:03.936Z,1072
2018-04-15T05:17:04.286Z,1108
2018-04-15T05:18:04.207Z,1144
2018-04-15T05:19:03.990Z,1184
2018-04-15T05:20:04.266Z,1228
2018-04-15T05:21:04.030Z,1268
2018-04-15T05:22:04.099Z,1312
2018-04-15T05:23:04.068Z,1360
2018-04-15T05:24:04.088Z,1412
2018-04-15T05:25:04.358Z,1464
2018-04-15T05:26:04.124Z,1516
2018-04-15T05:27:04.415Z,1564
2018-04-15T05:28:04.200Z,1616
2018-04-15T05:29:04.184Z,1664
2018-04-15T05:30:04.192Z,1716
2018-04-15T05:31:03.962Z,1768
2018-04-15T05:32:03.976Z,1820
2018-04-15T05:33:04.002Z,1868
2018-04-15T05:34:04.266Z,1924
2018-04-15T05:35:04.292Z,1980
2018-04-15T05:36:04.057Z,2036
2018-04-15T05:37:04.350Z,2084
2018-04-15T05:38:04.645Z,2136
2018-04-15T05:39:04.113Z,2192
2018-04-15T05:40:04.388Z,2244
2018-04-15T05:41:04.420Z,2300
2018-04-15T05:42:04.695Z,2356
2018-04-15T05:43:04.719Z,2404
2018-04-15T05:44:04.481Z,2452
2018-04-15T05:45:04.497Z,2508
2018-04-15T05:46:04.774Z,2564
2018-04-15T05:47:04.560Z,2616
2018-04-15T05:48:04.805Z,2672
2018-04-15T05:49:04.824Z,2716
2018-04-15T05:50:04.605Z,2768
2018-04-15T05:51:04.887Z,2820
2018-04-15T05:52:04.627Z,2868
2018-04-15T05:53:04.704Z,2908
2018-04-15T05:54:04.414Z,2960
2018-04-15T05:55:04.944Z,3004
2018-04-15T05:56:04.710Z,3048
2018-04-15T05:57:04.991Z,3096
2018-04-15T05:58:05.006Z,3144
2018-04-15T05:59:04.515Z,3184
2018-04-15T06:00:04.799Z,3224
2018-04-15T06:01:05.057Z,3260
2018-04-15T06:02:04.838Z,3296
2018-04-15T06:03:04.863Z,3336
2018-04-15T06:04:04.869Z,3364
2018-04-15T06:05:04.887Z,3388
2018-04-15T06:06:04.920Z,3416
2018-04-15T06:07:05.189Z,3444
2018-04-15T06:08:05.006Z,3480
2018-04-15T06:09:05.235Z,3520
2018-04-15T06:10:05.004Z,3568
2018-04-15T06:11:04.762Z,3624
2018-04-15T06:12:04.784Z,3696
2018-04-15T06:13:05.061Z,3772
2018-04-15T06:14:05.079Z,3856
2018-04-15T06:15:05.155Z,3944
2018-04-15T06:16:05.370Z,4036
2018-04-15T06:17:05.432Z,4124
2018-04-15T06:18:05.466Z,4212
2018-04-15T06:19:05.175Z,4284
2018-04-15T06:20:05.454Z,4332
2018-04-15T06:21:05.259Z,4376
2018-04-15T06:22:05.501Z,4420
2018-04-15T06:23:05.002Z,4476
2018-04-15T06:24:05.294Z,4540
2018-04-15T06:25:05.549Z,4608
2018-04-15T06:26:05.316Z,4680
2018-04-15T06:27:05.342Z,4748
2018-04-15T06:28:05.623Z,4824
2018-04-15T06:29:05.638Z,4876
2018-04-15T06:30:05.657Z,4936
2018-04-15T06:31:05.420Z,4996
2018-04-15T06:32:05.184Z,5064
2018-04-15T06:33:05.602Z,5124
2018-04-15T06:34:05.488Z,5188
2018-04-15T06:35:05.761Z,5264
2018-04-15T06:36:05.526Z,5332
2018-04-15T06:37:05.545Z,5400
2018-04-15T06:38:05.568Z,5468
2018-04-15T06:39:05.845Z,5544
2018-04-15T06:40:05.864Z,5616
2018-04-15T06:41:05.893Z,5688
2018-04-15T06:42:05.409Z,5760
2018-04-15T06:43:05.928Z,5844
2018-04-15T06:44:05.700Z,5964
2018-04-15T06:45:05.964Z,5992
2018-04-15T06:46:05.489Z,6056
2018-04-15T06:47:05.988Z,6112
2018-04-15T06:48:06.093Z,6184
2018-04-15T06:49:06.053Z,6280
2018-04-15T06:50:05.822Z,6304
2018-04-15T06:51:06.111Z,6340
2018-04-15T06:52:06.126Z,6388
2018-04-15T06:53:05.680Z,6456
2018-04-15T06:54:05.656Z,6600
2018-04-15T06:55:05.963Z,6892
2018-04-15T06:56:06.203Z,6760
2018-04-15T06:57:05.708Z,6872
2018-04-15T06:58:05.723Z,7624
2018-04-15T06:59:06.265Z,7676
2018-04-15T07:00:06.285Z,7196
2018-04-15T07:01:06.048Z,7024
2018-04-15T07:02:06.327Z,7100
2018-04-15T07:03:06.080Z,7184
2018-04-15T07:04:06.393Z,7256
2018-04-15T07:05:06.393Z,7336
2018-04-15T07:06:06.157Z,7412
2018-04-15T07:07:06.459Z,7564
2018-04-15T07:08:06.458Z,7664
2018-04-15T07:09:06.275Z,7596
2018-04-15T07:10:06.236Z,7596
2018-04-15T07:11:06.007Z,7624
2018-04-15T07:12:06.539Z,7684
2018-04-15T07:13:06.563Z,7780
2018-04-15T07:14:06.342Z,8004
2018-04-15T07:15:06.345Z,8084
2018-04-15T07:16:06.624Z,8408
2018-04-15T07:17:06.400Z,8960
2018-04-15T07:18:06.411Z,9168
2018-04-15T07:19:06.179Z,8788
2018-04-15T07:20:06.200Z,8280
2018-04-15T07:21:06.479Z,8540
2018-04-15T07:22:06.752Z,8920
2018-04-15T07:23:06.765Z,9032
2018-04-15T07:24:06.579Z,8844
2018-04-15T07:25:06.574Z,8812
2018-04-15T07:26:06.606Z,9024
2018-04-15T07:27:06.869Z,8512
2018-04-15T07:28:06.904Z,8824
2018-04-15T07:29:06.916Z,8640
2018-04-15T07:30:06.680Z,8720
2018-04-15T07:31:06.953Z,8796
2018-04-15T07:32:06.728Z,9240
2018-04-15T07:33:06.746Z,9080
2018-04-15T07:34:06.867Z,9236
2018-04-15T07:35:06.778Z,8528
2018-04-15T07:36:07.063Z,8404
2018-04-15T07:37:06.829Z,8832
2018-04-15T07:38:07.107Z,10140
2018-04-15T07:39:07.178Z,10496
2018-04-15T07:40:07.153Z,10504
2018-04-15T07:41:07.170Z,10264
2018-04-15T07:42:07.189Z,10460
2018-04-15T07:43:07.224Z,10492
2018-04-15T07:44:06.957Z,10160
2018-04-15T07:45:06.997Z,10332
2018-04-15T07:46:06.774Z,11016
2018-04-15T07:47:07.302Z,11064
2018-04-15T07:48:07.340Z,10872
2018-04-15T07:49:07.453Z,11332
2018-04-15T07:50:06.860Z,11520
2018-04-15T07:51:07.145Z,11640
2018-04-15T07:52:07.158Z,11376
2018-04-15T07:53:07.206Z,10472
2018-04-15T07:54:07.506Z,8980
2018-04-15T07:55:06.973Z,8696
2018-04-15T07:56:07.255Z,8912
2018-04-15T07:57:07.271Z,10492
2018-04-15T07:58:07.539Z,11056
2018-04-15T07:59:07.315Z,10852
2018-04-15T08:00:07.336Z,11772
2018-04-15T08:01:07.619Z,11236
2018-04-15T08:02:07.633Z,11824
2018-04-15T08:03:07.404Z,11660
2018-04-15T08:04:07.682Z,12288
2018-04-15T08:05:07.454Z,12328
2018-04-15T08:06:07.477Z,12580
2018-04-15T08:07:07.253Z,11980
2018-04-15T08:08:07.259Z,12700
2018-04-15T08:09:07.590Z,12620
2018-04-15T08:10:07.557Z,11988
2018-04-15T08:11:07.591Z,11940
2018-04-15T08:12:07.635Z,12044
2018-04-15T08:13:07.895Z,12148
2018-04-15T08:14:07.412Z,12368
2018-04-15T08:15:07.941Z,12480
2018-04-15T08:16:07.713Z,12440
2018-04-15T08:17:08.058Z,12452
2018-04-15T08:18:08.009Z,12348
2018-04-15T08:19:07.537Z,12440
2018-04-15T08:20:07.294Z,12328
2018-04-15T08:21:08.080Z,11984
2018-04-15T08:22:07.854Z,11860
2018-04-15T08:23:07.884Z,11524
2018-04-15T08:24:07.947Z,11760
2018-04-15T08:25:08.202Z,11452
2018-04-15T08:26:07.951Z,11276
2018-04-15T08:27:08.228Z,11172
2018-04-15T08:28:08.251Z,11544
2018-04-15T08:29:07.770Z,11584
2018-04-15T08:30:07.788Z,11524
2018-04-15T08:31:08.447Z,11220
2018-04-15T08:32:08.103Z,10992
2018-04-15T08:33:08.375Z,10612
2018-04-15T08:34:08.399Z,9960
2018-04-15T08:35:07.907Z,9436
2018-04-15T08:36:07.681Z,9004
2018-04-15T08:37:08.486Z,8628
2018-04-15T08:38:08.491Z,8476
2018-04-15T08:39:08.318Z,8440
2018-04-15T08:40:07.772Z,8340
2018-04-15T08:41:07.804Z,8464
2018-04-15T08:42:08.584Z,8440
2018-04-15T08:43:08.354Z,8636
2018-04-15T08:44:08.629Z,8184
2018-04-15T08:45:08.653Z,8028
2018-04-15T08:46:08.481Z,7952
2018-04-15T08:47:08.445Z,8000
2018-04-15T08:48:08.736Z,8080
2018-04-15T08:49:08.758Z,8288
2018-04-15T08:50:08.524Z,8420
2018-04-15T08:51:08.297Z,8412
2018-04-15T08:52:08.315Z,8584
2018-04-15T08:53:08.599Z,8748
2018-04-15T08:54:08.415Z,8836
2018-04-15T08:55:08.895Z,8880
2018-04-15T08:56:08.662Z,9224
2018-04-15T08:57:08.947Z,9328
2018-04-15T08:58:08.713Z,9516
2018-04-15T08:59:08.993Z,9760
2018-04-15T09:00:09.023Z,9932
2018-04-15T09:01:08.536Z,10224
2018-04-15T09:02:08.555Z,10744
2018-04-15T09:03:09.096Z,11216
2018-04-15T09:04:09.117Z,11804
2018-04-15T09:05:09.138Z,11952
2018-04-15T09:06:09.170Z,12368
2018-04-15T09:07:08.935Z,12232
2018-04-15T09:08:08.953Z,12148
2018-04-15T09:09:09.222Z,11880
2018-04-15T09:10:09.005Z,12452
2018-04-15T09:11:09.282Z,13280
2018-04-15T09:12:09.051Z,13140
2018-04-15T09:13:08.821Z,12424
2018-04-15T09:14:09.105Z,13120
2018-04-15T09:15:09.123Z,13208
2018-04-15T09:16:09.410Z,13088
2018-04-15T09:17:08.660Z,13104
2018-04-15T09:18:08.991Z,12996
2018-04-15T09:19:09.487Z,11904
2018-04-15T09:20:08.991Z,12248
2018-04-15T09:21:09.273Z,12588
2018-04-15T09:22:09.563Z,12236
2018-04-15T09:23:09.316Z,12460
2018-04-15T09:24:09.643Z,12760
2018-04-15T09:25:09.395Z,12540
2018-04-15T09:26:09.653Z,14492
2018-04-15T09:27:09.433Z,13200
2018-04-15T09:28:09.712Z,13080
2018-04-15T09:29:09.535Z,13088
2018-04-15T09:30:09.969Z,13208
2018-04-15T09:31:09.526Z,14832
2018-04-15T09:32:09.298Z,16544
2018-04-15T09:33:09.833Z,17536
2018-04-15T09:34:09.612Z,18208
2018-04-15T09:35:09.640Z,18912
2018-04-15T09:36:09.656Z,18112
2018-04-15T09:37:09.478Z,18048
2018-04-15T09:38:09.965Z,17568
2018-04-15T09:39:09.891Z,17504
2018-04-15T09:40:10.035Z,17824
2018-04-15T09:41:09.933Z,15584
2018-04-15T09:42:10.074Z,13836
2018-04-15T09:43:09.595Z,12924
2018-04-15T09:44:09.862Z,12984
2018-04-15T09:45:09.380Z,12584
2018-04-15T09:46:10.168Z,12312
2018-04-15T09:47:09.942Z,12352
2018-04-15T09:48:09.972Z,11556
2018-04-15T09:49:10.007Z,11520
2018-04-15T09:50:09.785Z,12244
2018-04-15T09:51:10.068Z,13240
2018-04-15T09:52:10.339Z,14372
2018-04-15T09:53:09.869Z,15552
2018-04-15T09:54:10.455Z,16288
2018-04-15T09:55:10.424Z,17184
2018-04-15T09:56:10.463Z,17632
2018-04-15T09:57:09.972Z,17824
2018-04-15T09:58:10.263Z,17344
2018-04-15T09:59:10.422Z,16448
2018-04-15T10:00:10.312Z,15520
2018-04-15T10:01:10.084Z,15584
2018-04-15T10:02:10.634Z,16032
2018-04-15T10:03:10.394Z,16128
2018-04-15T10:04:10.437Z,17184
2018-04-15T10:05:10.198Z,17696
2018-04-15T10:06:10.482Z,18464
2018-04-15T10:07:10.761Z,17728
2018-04-15T10:08:10.791Z,19744
2018-04-15T10:09:10.973Z,21280
2018-04-15T10:10:10.593Z,22080
2018-04-15T10:11:10.565Z,22528
2018-04-15T10:12:10.651Z,23488
2018-04-15T10:13:10.942Z,24352
2018-04-15T10:14:10.706Z,24544
2018-04-15T10:15:11.007Z,24512
2018-04-15T10:16:10.760Z,24480
2018-04-15T10:17:10.537Z,24192
2018-04-15T10:18:10.567Z,23808
2018-04-15T10:19:11.206Z,25312
2018-04-15T10:20:10.880Z,24320
2018-04-15T10:21:11.165Z,25856
2018-04-15T10:22:11.195Z,25504
2018-04-15T10:23:11.224Z,27264
2018-04-15T10:24:10.612Z,28576
2018-04-15T10:25:11.291Z,29504
2018-04-15T10:26:11.057Z,29696
2018-04-15T10:27:11.087Z,26048
2018-04-15T10:28:11.114Z,20928
2018-04-15T10:29:11.154Z,18688
2018-04-15T10:30:11.435Z,16352
2018-04-15T10:31:11.259Z,14024
2018-04-15T10:32:11.493Z,14312
2018-04-15T10:33:11.268Z,14748
2018-04-15T10:34:11.040Z,13668
2018-04-15T10:35:11.072Z,13112
2018-04-15T10:36:11.358Z,12228
2018-04-15T10:37:11.638Z,12180
2018-04-15T10:38:11.391Z,12308
2018-04-15T10:39:11.228Z,12576
2018-04-15T10:40:11.206Z,12908
2018-04-15T10:41:11.513Z,13200
2018-04-15T10:42:11.324Z,13608
2018-04-15T10:43:11.572Z,14068
2018-04-15T10:44:11.593Z,14472
2018-04-15T10:45:11.875Z,14744
2018-04-15T10:46:11.745Z,14940
2018-04-15T10:47:11.698Z,15032
2018-04-15T10:48:11.463Z,15120
2018-04-15T10:49:11.997Z,15480
2018-04-15T10:50:12.043Z,16032
2018-04-15T10:51:11.800Z,16768
2018-04-15T10:52:11.825Z,17024
2018-04-15T10:53:12.120Z,17568
2018-04-15T10:54:11.682Z,18144
2018-04-15T10:55:12.168Z,19328
2018-04-15T10:56:12.188Z,24896
2018-04-15T10:57:11.968Z,30112
2018-04-15T10:58:12.269Z,35488
2018-04-15T10:59:12.281Z,31520
2018-04-15T11:00:11.796Z,20480
2018-04-15T11:01:12.076Z,18624
2018-04-15T11:02:11.607Z,18816
2018-04-15T11:03:11.881Z,19008
2018-04-15T11:04:12.424Z,17504
2018-04-15T11:05:12.456Z,17056
2018-04-15T11:06:12.492Z,17184
2018-04-15T11:07:12.268Z,18912
2018-04-15T11:08:12.045Z,18272
2018-04-15T11:09:12.376Z,14744
2018-04-15T11:10:12.403Z,13404
2018-04-15T11:11:12.633Z,13268
2018-04-15T11:12:12.684Z,13720
2018-04-15T11:13:12.450Z,13292
2018-04-15T11:14:12.753Z,13152
2018-04-15T11:15:11.993Z,13116
2018-04-15T11:16:12.539Z,12912
2018-04-15T11:17:12.816Z,12800
2018-04-15T11:18:12.598Z,13044
2018-04-15T11:19:12.338Z,13432
2018-04-15T11:20:12.679Z,13840
2018-04-15T11:21:12.401Z,14468
2018-04-15T11:22:12.684Z,14176
2018-04-15T11:23:12.210Z,13108
2018-04-15T11:24:12.795Z,12272
2018-04-15T11:25:13.035Z,11604
2018-04-15T11:26:12.826Z,11328
2018-04-15T11:27:12.855Z,10896
2018-04-15T11:28:12.882Z,10392
2018-04-15T11:29:12.656Z,9732
2018-04-15T11:30:12.675Z,9208
2018-04-15T11:31:12.957Z,8812
2018-04-15T11:32:12.734Z,8560
2018-04-15T11:33:13.014Z,8484
2018-04-15T11:34:13.051Z,8564
2018-04-15T11:35:13.323Z,8716
2018-04-15T11:36:13.105Z,8876
2018-04-15T11:37:13.382Z,9028
2018-04-15T11:38:13.420Z,9168
2018-04-15T11:39:13.508Z,9332
2018-04-15T11:40:13.207Z,9500
2018-04-15T11:41:13.233Z,9640
2018-04-15T11:42:13.284Z,9828
2018-04-15T11:43:13.543Z,10100
2018-04-15T11:44:13.310Z,10368
2018-04-15T11:45:13.814Z,10624
2018-04-15T11:46:13.625Z,10908
2018-04-15T11:47:13.668Z,11324
2018-04-15T11:48:13.696Z,11828
2018-04-15T11:49:13.472Z,12464
2018-04-15T11:50:13.760Z,13476
2018-04-15T11:51:13.284Z,14144
2018-04-15T11:52:13.550Z,15448
2018-04-15T11:53:13.831Z,18272
2018-04-15T11:54:13.914Z,20928
2018-04-15T11:55:13.643Z,21728
2018-04-15T11:56:13.926Z,22144
2018-04-15T11:57:13.687Z,24416
2018-04-15T11:58:13.716Z,24800
2018-04-15T11:59:13.745Z,26656
2018-04-15T12:00:14.040Z,26240
2018-04-15T12:01:14.055Z,29312
2018-04-15T12:02:14.214Z,33120
2018-04-15T12:03:13.871Z,32800
2018-04-15T12:04:14.146Z,35296
2018-04-15T12:05:14.171Z,37632
2018-04-15T12:06:13.693Z,36000
2018-04-15T12:07:13.972Z,36864
2018-04-15T12:08:13.770Z,39552
2018-04-15T12:09:14.336Z,37536
2018-04-15T12:10:14.538Z,35520
2018-04-15T12:11:14.330Z,36160
2018-04-15T12:12:14.105Z,39040
2018-04-15T12:13:14.377Z,28320
2018-04-15T12:14:14.518Z,26976
2018-04-15T12:15:14.442Z,25376
2018-04-15T12:16:14.222Z,24352
2018-04-15T12:17:14.376Z,23232
2018-04-15T12:18:14.533Z,22176
2018-04-15T12:19:14.335Z,21472
2018-04-15T12:20:14.339Z,21248
2018-04-15T12:21:14.122Z,18528
2018-04-15T12:22:14.175Z,19104
2018-04-15T12:23:14.718Z,20352
2018-04-15T12:24:14.560Z,19776
2018-04-15T12:25:14.770Z,20704
2018-04-15T12:26:14.552Z,20256
2018-04-15T12:27:14.838Z,18112
2018-04-15T12:28:14.614Z,17952
2018-04-15T12:29:14.405Z,18368
2018-04-15T12:30:14.928Z,18688
2018-04-15T12:31:14.447Z,18496
2018-04-15T12:32:14.462Z,18976
2018-04-15T12:33:14.765Z,18272
2018-04-15T12:34:14.791Z,16576
2018-04-15T12:35:14.827Z,15904
2018-04-15T12:36:14.853Z,15840
2018-04-15T12:37:15.145Z,15808
2018-04-15T12:38:15.178Z,16096
2018-04-15T12:39:15.002Z,16096
2018-04-15T12:40:14.971Z,16384
2018-04-15T12:41:15.267Z,17600
2018-04-15T12:42:14.779Z,20768
2018-04-15T12:43:15.308Z,24352
2018-04-15T12:44:15.085Z,31840
2018-04-15T12:45:15.125Z,40832
2018-04-15T12:46:15.418Z,45152
2018-04-15T12:47:15.453Z,45504
2018-04-15T12:48:14.955Z,59552
2018-04-15T12:49:15.013Z,36320
2018-04-15T12:50:15.029Z,30208
2018-04-15T12:51:15.312Z,42080
2018-04-15T12:52:15.588Z,48128
2018-04-15T12:53:15.623Z,47392
2018-04-15T12:54:15.695Z,40704
2018-04-15T12:55:15.431Z,37696
2018-04-15T12:56:15.458Z,35040
2018-04-15T12:57:15.233Z,36224
2018-04-15T12:58:15.522Z,39264
2018-04-15T12:59:15.553Z,48608
2018-04-15T13:00:15.839Z,48896
2018-04-15T13:01:15.631Z,32544
2018-04-15T13:02:15.649Z,26944
2018-04-15T13:03:15.939Z,30784
2018-04-15T13:04:15.770Z,26464
2018-04-15T13:05:16.006Z,21312
2018-04-15T13:06:15.898Z,18624
2018-04-15T13:07:16.056Z,16544
2018-04-15T13:08:15.833Z,15016
2018-04-15T13:09:16.165Z,13872
2018-04-15T13:10:15.647Z,13136
2018-04-15T13:11:15.946Z,13184
2018-04-15T13:12:16.200Z,13944
2018-04-15T13:13:15.982Z,15704
2018-04-15T13:14:15.807Z,16864
2018-04-15T13:15:16.029Z,18336
2018-04-15T13:16:15.809Z,24736
2018-04-15T13:17:16.342Z,20512
2018-04-15T13:18:16.123Z,21280
2018-04-15T13:19:16.150Z,23232
2018-04-15T13:20:16.439Z,22432
2018-04-15T13:21:16.233Z,22656
2018-04-15T13:22:16.148Z,19488
2018-04-15T13:23:16.556Z,18656
2018-04-15T13:24:16.088Z,16864
2018-04-15T13:25:16.355Z,16480
2018-04-15T13:26:16.642Z,16480
2018-04-15T13:27:16.157Z,16384
2018-04-15T13:28:16.698Z,16096
2018-04-15T13:29:16.281Z,16000
2018-04-15T13:30:16.763Z,16192
2018-04-15T13:31:16.537Z,16960
2018-04-15T13:32:16.824Z,19840
2018-04-15T13:33:16.605Z,19488
2018-04-15T13:34:16.648Z,23296
2018-04-15T13:35:16.912Z,20544
2018-04-15T13:36:16.945Z,19072